Hallie, Wisconsin
Current Conditions -  °F | °C
As of 8:56 PM on Sunday 21 Dec 2014 (Local Time) from KEAU Reporting Station
Overcast Overcast  
Wind Chill: 31°   Ceiling: 900
Heat Index: 37°   Visibility: 9mi
Dew Point: 35°   Wind: 8mph
Humidity: 93%   Direction: 170°S
Pressure: 29.79"   Gusts: NA
Location:  44.9743°N, 91.4379°W
Report Text: KEAU 220256Z AUTO 17007KT 9SM OVC009 03/02 A2979 RMK AO2 SLP097 60000 T00280017 58004
Loading
Personal Weather Stations






























Interactive Weather Map New forecast layout! Learn more

10-Day Weather Forecast

Advertisements
Track Severe Weather on mobile